sensor_id;sensor_type;location;lat;lon;timestamp;temperature;humidity
7942;HTU21D;4016;50.758;7.150;2023-10-08T00:02:11;16.60;118.24
7942;HTU21D;4016;50.758;7.150;2023-10-08T00:07:14;16.55;118.18
7942;HTU21D;4016;50.758;7.150;2023-10-08T00:12:14;16.58;117.98
7942;HTU21D;4016;50.758;7.150;2023-10-08T00:17:16;16.59;117.99
7942;HTU21D;4016;50.758;7.150;2023-10-08T00:22:19;16.44;118.98
7942;HTU21D;4016;50.758;7.150;2023-10-08T00:27:19;16.30;118.99
7942;HTU21D;4016;50.758;7.150;2023-10-08T00:32:22;16.18;118.99
7942;HTU21D;4016;50.758;7.150;2023-10-08T00:37:22;16.20;118.99
7942;HTU21D;4016;50.758;7.150;2023-10-08T00:42:27;15.98;118.99
7942;HTU21D;4016;50.758;7.150;2023-10-08T00:47:28;15.81;118.99
7942;HTU21D;4016;50.758;7.150;2023-10-08T00:52:29;15.70;118.99
7942;HTU21D;4016;50.758;7.150;2023-10-08T00:57:30;15.57;118.99
7942;HTU21D;4016;50.758;7.150;2023-10-08T01:02:35;15.44;118.99
7942;HTU21D;4016;50.758;7.150;2023-10-08T01:07:49;15.29;118.99
7942;HTU21D;4016;50.758;7.150;2023-10-08T01:12:51;15.14;118.99
7942;HTU21D;4016;50.758;7.150;2023-10-08T01:17:55;14.98;118.99
7942;HTU21D;4016;50.758;7.150;2023-10-08T01:23:04;14.89;118.99
7942;HTU21D;4016;50.758;7.150;2023-10-08T01:28:09;14.86;118.99
7942;HTU21D;4016;50.758;7.150;2023-10-08T01:33:27;14.78;118.99
7942;HTU21D;4016;50.758;7.150;2023-10-08T01:38:32;14.67;118.99
7942;HTU21D;4016;50.758;7.150;2023-10-08T01:43:35;14.55;118.99
7942;HTU21D;4016;50.758;7.150;2023-10-08T01:48:35;14.42;118.99
7942;HTU21D;4016;50.758;7.150;2023-10-08T01:53:38;14.28;118.99
7942;HTU21D;4016;50.758;7.150;2023-10-08T01:58:38;14.21;118.99
7942;HTU21D;4016;50.758;7.150;2023-10-08T02:03:39;14.05;118.99
7942;HTU21D;4016;50.758;7.150;2023-10-08T02:08:41;13.96;118.99
7942;HTU21D;4016;50.758;7.150;2023-10-08T02:13:42;13.83;118.99
7942;HTU21D;4016;50.758;7.150;2023-10-08T02:18:42;13.76;118.99
7942;HTU21D;4016;50.758;7.150;2023-10-08T02:23:44;13.63;118.99
7942;HTU21D;4016;50.758;7.150;2023-10-08T02:28:44;13.53;118.99
7942;HTU21D;4016;50.758;7.150;2023-10-08T02:33:45;13.43;118.99
7942;HTU21D;4016;50.758;7.150;2023-10-08T02:38:45;13.35;118.99
7942;HTU21D;4016;50.758;7.150;2023-10-08T02:43:46;13.34;118.99
7942;HTU21D;4016;50.758;7.150;2023-10-08T02:48:48;13.35;118.99
7942;HTU21D;4016;50.758;7.150;2023-10-08T02:53:49;13.23;118.99
7942;HTU21D;4016;50.758;7.150;2023-10-08T02:58:50;13.18;118.99
7942;HTU21D;4016;50.758;7.150;2023-10-08T03:03:51;13.12;118.99
7942;HTU21D;4016;50.758;7.150;2023-10-08T03:09:02;13.14;118.99
7942;HTU21D;4016;50.758;7.150;2023-10-08T03:14:05;13.18;118.99
7942;HTU21D;4016;50.758;7.150;2023-10-08T03:19:15;13.17;118.99
7942;HTU21D;4016;50.758;7.150;2023-10-08T03:24:18;13.19;118.99
7942;HTU21D;4016;50.758;7.150;2023-10-08T03:29:37;13.24;118.99
7942;HTU21D;4016;50.758;7.150;2023-10-08T03:34:46;13.26;118.99
7942;HTU21D;4016;50.758;7.150;2023-10-08T03:39:48;13.26;118.99
7942;HTU21D;4016;50.758;7.150;2023-10-08T03:44:52;13.26;118.99
7942;HTU21D;4016;50.758;7.150;2023-10-08T03:49:54;13.25;118.99
7942;HTU21D;4016;50.758;7.150;2023-10-08T03:54:54;13.27;118.99
7942;HTU21D;4016;50.758;7.150;2023-10-08T04:00:20;13.26;118.99
7942;HTU21D;4016;50.758;7.150;2023-10-08T04:05:29;13.25;118.99
7942;HTU21D;4016;50.758;7.150;2023-10-08T04:10:40;13.25;118.99
7942;HTU21D;4016;50.758;7.150;2023-10-08T04:15:41;13.23;118.99
7942;HTU21D;4016;50.758;7.150;2023-10-08T04:20:41;13.20;118.99
7942;HTU21D;4016;50.758;7.150;2023-10-08T04:26:00;13.22;118.99
7942;HTU21D;4016;50.758;7.150;2023-10-08T04:31:01;13.22;118.99
7942;HTU21D;4016;50.758;7.150;2023-10-08T04:36:14;13.23;118.99
7942;HTU21D;4016;50.758;7.150;2023-10-08T04:41:18;13.22;118.99
7942;HTU21D;4016;50.758;7.150;2023-10-08T04:46:19;13.20;118.99
7942;HTU21D;4016;50.758;7.150;2023-10-08T04:51:20;13.19;118.99
7942;HTU21D;4016;50.758;7.150;2023-10-08T04:56:23;13.23;118.99
7942;HTU21D;4016;50.758;7.150;2023-10-08T05:01:23;13.24;118.99
7942;HTU21D;4016;50.758;7.150;2023-10-08T05:06:41;13.24;118.99
7942;HTU21D;4016;50.758;7.150;2023-10-08T05:11:52;13.25;118.99
7942;HTU21D;4016;50.758;7.150;2023-10-08T05:16:52;13.22;118.99
7942;HTU21D;4016;50.758;7.150;2023-10-08T05:22:01;13.20;118.99
7942;HTU21D;4016;50.758;7.150;2023-10-08T05:27:19;13.18;118.99
7942;HTU21D;4016;50.758;7.150;2023-10-08T05:32:44;13.16;118.99
7942;HTU21D;4016;50.758;7.150;2023-10-08T05:38:03;13.08;118.99
7942;HTU21D;4016;50.758;7.150;2023-10-08T05:43:13;13.05;118.99
7942;HTU21D;4016;50.758;7.150;2023-10-08T05:48:33;13.01;118.99
7942;HTU21D;4016;50.758;7.150;2023-10-08T05:53:45;12.97;118.99
7942;HTU21D;4016;50.758;7.150;2023-10-08T05:58:49;12.93;118.99
7942;HTU21D;4016;50.758;7.150;2023-10-08T06:04:00;12.92;118.99
7942;HTU21D;4016;50.758;7.150;2023-10-08T06:09:06;12.92;118.99
7942;HTU21D;4016;50.758;7.150;2023-10-08T06:14:22;13.04;118.99
7942;HTU21D;4016;50.758;7.150;2023-10-08T06:19:41;13.05;118.99
7942;HTU21D;4016;50.758;7.150;2023-10-08T06:24:41;13.01;118.99
7942;HTU21D;4016;50.758;7.150;2023-10-08T06:29:41;13.04;118.99
7942;HTU21D;4016;50.758;7.150;2023-10-08T06:34:44;13.18;118.99
7942;HTU21D;4016;50.758;7.150;2023-10-08T06:39:45;13.25;118.99
7942;HTU21D;4016;50.758;7.150;2023-10-08T06:44:48;13.35;118.99
7942;HTU21D;4016;50.758;7.150;2023-10-08T06:49:49;13.49;118.99
7942;HTU21D;4016;50.758;7.150;2023-10-08T06:54:51;13.68;118.99
7942;HTU21D;4016;50.758;7.150;2023-10-08T06:59:53;13.86;118.99
7942;HTU21D;4016;50.758;7.150;2023-10-08T07:04:53;14.06;118.99
7942;HTU21D;4016;50.758;7.150;2023-10-08T07:09:53;14.21;118.99
7942;HTU21D;4016;50.758;7.150;2023-10-08T07:14:57;14.36;118.99
7942;HTU21D;4016;50.758;7.150;2023-10-08T07:19:58;14.57;118.99
7942;HTU21D;4016;50.758;7.150;2023-10-08T07:24:59;14.78;118.99
7942;HTU21D;4016;50.758;7.150;2023-10-08T07:29:59;15.07;118.99
7942;HTU21D;4016;50.758;7.150;2023-10-08T07:35:02;15.29;118.99
7942;HTU21D;4016;50.758;7.150;2023-10-08T07:40:28;15.46;118.99
7942;HTU21D;4016;50.758;7.150;2023-10-08T07:45:29;15.63;118.99
7942;HTU21D;4016;50.758;7.150;2023-10-08T07:50:41;15.81;118.99
7942;HTU21D;4016;50.758;7.150;2023-10-08T07:55:41;15.98;118.99
7942;HTU21D;4016;50.758;7.150;2023-10-08T08:00:42;16.13;118.99
7942;HTU21D;4016;50.758;7.150;2023-10-08T08:05:51;16.48;118.99
7942;HTU21D;4016;50.758;7.150;2023-10-08T08:10:53;16.93;117.24
7942;HTU21D;4016;50.758;7.150;2023-10-08T08:16:04;17.47;110.81
7942;HTU21D;4016;50.758;7.150;2023-10-08T08:21:18;17.49;112.63
7942;HTU21D;4016;50.758;7.150;2023-10-08T08:26:23;17.80;111.66
7942;HTU21D;4016;50.758;7.150;2023-10-08T08:31:30;18.15;107.56
7942;HTU21D;4016;50.758;7.150;2023-10-08T08:36:31;18.59;101.54
7942;HTU21D;4016;50.758;7.150;2023-10-08T08:41:38;18.67;102.86
7942;HTU21D;4016;50.758;7.150;2023-10-08T08:46:38;18.84;102.04
7942;HTU21D;4016;50.758;7.150;2023-10-08T08:51:40;18.84;104.60
7942;HTU21D;4016;50.758;7.150;2023-10-08T08:56:42;18.83;105.83
7942;HTU21D;4016;50.758;7.150;2023-10-08T09:01:44;18.91;105.41
7942;HTU21D;4016;50.758;7.150;2023-10-08T09:06:45;19.21;101.44
7942;HTU21D;4016;50.758;7.150;2023-10-08T09:11:45;19.10;102.88
7942;HTU21D;4016;50.758;7.150;2023-10-08T09:16:46;19.11;102.81
7942;HTU21D;4016;50.758;7.150;2023-10-08T09:27:00;19.41;101.12
7942;HTU21D;4016;50.758;7.150;2023-10-08T09:32:03;19.45;101.39
7942;HTU21D;4016;50.758;7.150;2023-10-08T09:37:06;19.39;100.49
7942;HTU21D;4016;50.758;7.150;2023-10-08T09:42:08;19.61;98.96
7942;HTU21D;4016;50.758;7.150;2023-10-08T09:47:12;19.92;96.23
7942;HTU21D;4016;50.758;7.150;2023-10-08T09:52:16;19.84;98.57
7942;HTU21D;4016;50.758;7.150;2023-10-08T09:57:20;19.79;98.81
7942;HTU21D;4016;50.758;7.150;2023-10-08T10:02:21;19.98;98.59
7942;HTU21D;4016;50.758;7.150;2023-10-08T10:07:25;20.31;94.40
7942;HTU21D;4016;50.758;7.150;2023-10-08T10:12:26;20.35;96.39
7942;HTU21D;4016;50.758;7.150;2023-10-08T10:17:28;20.32;98.49
7942;HTU21D;4016;50.758;7.150;2023-10-08T10:22:31;20.16;99.18
7942;HTU21D;4016;50.758;7.150;2023-10-08T10:27:33;20.15;100.61
7942;HTU21D;4016;50.758;7.150;2023-10-08T10:32:35;20.43;97.62
7942;HTU21D;4016;50.758;7.150;2023-10-08T10:37:37;20.43;97.81
7942;HTU21D;4016;50.758;7.150;2023-10-08T10:42:47;20.63;99.09
7942;HTU21D;4016;50.758;7.150;2023-10-08T10:47:53;20.75;99.87
7942;HTU21D;4016;50.758;7.150;2023-10-08T10:53:01;20.81;97.12
7942;HTU21D;4016;50.758;7.150;2023-10-08T10:58:11;20.47;98.68
7942;HTU21D;4016;50.758;7.150;2023-10-08T11:03:12;20.59;99.50
7942;HTU21D;4016;50.758;7.150;2023-10-08T11:08:23;20.83;99.85
7942;HTU21D;4016;50.758;7.150;2023-10-08T11:13:24;21.00;98.13
7942;HTU21D;4016;50.758;7.150;2023-10-08T11:18:43;21.19;96.47
7942;HTU21D;4016;50.758;7.150;2023-10-08T11:23:48;21.29;97.07
7942;HTU21D;4016;50.758;7.150;2023-10-08T11:29:16;21.29;96.89
7942;HTU21D;4016;50.758;7.150;2023-10-08T11:34:31;21.44;98.25
7942;HTU21D;4016;50.758;7.150;2023-10-08T11:39:39;21.63;96.42
7942;HTU21D;4016;50.758;7.150;2023-10-08T11:44:45;21.77;96.57
7942;HTU21D;4016;50.758;7.150;2023-10-08T11:49:47;21.94;96.51
7942;HTU21D;4016;50.758;7.150;2023-10-08T11:54:47;22.06;94.55
7942;HTU21D;4016;50.758;7.150;2023-10-08T11:59:49;22.14;96.71
7942;HTU21D;4016;50.758;7.150;2023-10-08T12:04:52;22.29;95.57
7942;HTU21D;4016;50.758;7.150;2023-10-08T12:09:57;22.40;95.30
7942;HTU21D;4016;50.758;7.150;2023-10-08T12:14:57;22.33;95.16
7942;HTU21D;4016;50.758;7.150;2023-10-08T12:19:59;22.43;95.08
7942;HTU21D;4016;50.758;7.150;2023-10-08T12:25:12;22.49;96.43
7942;HTU21D;4016;50.758;7.150;2023-10-08T12:30:14;22.46;94.61
7942;HTU21D;4016;50.758;7.150;2023-10-08T12:35:14;22.43;92.74
7942;HTU21D;4016;50.758;7.150;2023-10-08T12:40:14;22.22;98.13
7942;HTU21D;4016;50.758;7.150;2023-10-08T12:45:24;22.34;94.04
7942;HTU21D;4016;50.758;7.150;2023-10-08T12:50:27;22.11;97.07
7942;HTU21D;4016;50.758;7.150;2023-10-08T12:55:39;22.04;98.52
7942;HTU21D;4016;50.758;7.150;2023-10-08T13:00:40;22.10;96.01
7942;HTU21D;4016;50.758;7.150;2023-10-08T13:05:50;22.07;96.57
7942;HTU21D;4016;50.758;7.150;2023-10-08T13:10:54;22.02;99.32
7942;HTU21D;4016;50.758;7.150;2023-10-08T13:16:00;22.14;98.60
7942;HTU21D;4016;50.758;7.150;2023-10-08T13:21:07;22.12;99.70
7942;HTU21D;4016;50.758;7.150;2023-10-08T13:26:09;22.31;99.09
7942;HTU21D;4016;50.758;7.150;2023-10-08T13:31:10;22.26;98.19
7942;HTU21D;4016;50.758;7.150;2023-10-08T13:36:11;22.31;97.71
7942;HTU21D;4016;50.758;7.150;2023-10-08T13:41:13;22.54;97.14
7942;HTU21D;4016;50.758;7.150;2023-10-08T13:46:19;22.51;96.36
7942;HTU21D;4016;50.758;7.150;2023-10-08T13:51:22;22.39;97.80
7942;HTU21D;4016;50.758;7.150;2023-10-08T13:56:27;22.31;100.87
7942;HTU21D;4016;50.758;7.150;2023-10-08T14:01:31;22.32;102.00
7942;HTU21D;4016;50.758;7.150;2023-10-08T14:06:34;22.25;102.86
7942;HTU21D;4016;50.758;7.150;2023-10-08T14:11:35;22.22;102.10
7942;HTU21D;4016;50.758;7.150;2023-10-08T14:16:42;22.13;103.57
7942;HTU21D;4016;50.758;7.150;2023-10-08T14:21:42;22.23;103.32
7942;HTU21D;4016;50.758;7.150;2023-10-08T14:27:04;22.63;102.80
7942;HTU21D;4016;50.758;7.150;2023-10-08T14:32:10;22.83;97.52
7942;HTU21D;4016;50.758;7.150;2023-10-08T14:37:10;22.66;99.01
7942;HTU21D;4016;50.758;7.150;2023-10-08T14:42:29;22.47;99.28
7942;HTU21D;4016;50.758;7.150;2023-10-08T14:47:50;22.18;100.95
7942;HTU21D;4016;50.758;7.150;2023-10-08T14:52:50;21.92;101.69
7942;HTU21D;4016;50.758;7.150;2023-10-08T14:57:51;21.87;102.59
7942;HTU21D;4016;50.758;7.150;2023-10-08T15:02:54;21.75;103.72
7942;HTU21D;4016;50.758;7.150;2023-10-08T15:07:55;21.58;104.58
7942;HTU21D;4016;50.758;7.150;2023-10-08T15:12:56;21.48;105.30
7942;HTU21D;4016;50.758;7.150;2023-10-08T15:17:57;21.46;105.61
7942;HTU21D;4016;50.758;7.150;2023-10-08T15:22:58;21.50;106.46
7942;HTU21D;4016;50.758;7.150;2023-10-08T15:27:58;21.45;108.78
7942;HTU21D;4016;50.758;7.150;2023-10-08T15:32:58;21.37;109.53
7942;HTU21D;4016;50.758;7.150;2023-10-08T15:37:59;21.38;107.38
7942;HTU21D;4016;50.758;7.150;2023-10-08T15:43:00;21.28;107.87
7942;HTU21D;4016;50.758;7.150;2023-10-08T15:48:00;21.18;109.20
7942;HTU21D;4016;50.758;7.150;2023-10-08T15:53:00;21.25;107.23
7942;HTU21D;4016;50.758;7.150;2023-10-08T15:58:01;21.06;108.09
7942;HTU21D;4016;50.758;7.150;2023-10-08T16:03:01;20.81;110.00
7942;HTU21D;4016;50.758;7.150;2023-10-08T16:08:01;20.74;110.27
7942;HTU21D;4016;50.758;7.150;2023-10-08T16:13:02;20.49;111.29
7942;HTU21D;4016;50.758;7.150;2023-10-08T16:18:04;20.40;111.94
7942;HTU21D;4016;50.758;7.150;2023-10-08T16:23:04;20.20;112.55
7942;HTU21D;4016;50.758;7.150;2023-10-08T16:28:05;19.99;114.37
7942;HTU21D;4016;50.758;7.150;2023-10-08T16:33:06;19.84;115.51
7942;HTU21D;4016;50.758;7.150;2023-10-08T16:38:06;19.60;117.26
7942;HTU21D;4016;50.758;7.150;2023-10-08T16:43:07;19.40;118.99
7942;HTU21D;4016;50.758;7.150;2023-10-08T16:48:12;19.17;118.99
7942;HTU21D;4016;50.758;7.150;2023-10-08T16:53:15;18.96;118.99
7942;HTU21D;4016;50.758;7.150;2023-10-08T16:58:16;18.78;118.99
7942;HTU21D;4016;50.758;7.150;2023-10-08T17:03:17;18.62;118.99
7942;HTU21D;4016;50.758;7.150;2023-10-08T17:08:21;18.44;118.99
7942;HTU21D;4016;50.758;7.150;2023-10-08T17:13:22;18.28;118.99
7942;HTU21D;4016;50.758;7.150;2023-10-08T17:18:22;18.14;118.99
7942;HTU21D;4016;50.758;7.150;2023-10-08T17:23:24;17.95;118.99
7942;HTU21D;4016;50.758;7.150;2023-10-08T17:28:25;17.75;118.99
7942;HTU21D;4016;50.758;7.150;2023-10-08T17:33:26;17.60;118.99
7942;HTU21D;4016;50.758;7.150;2023-10-08T17:38:28;17.46;118.99
7942;HTU21D;4016;50.758;7.150;2023-10-08T17:43:31;17.32;118.99
7942;HTU21D;4016;50.758;7.150;2023-10-08T17:48:31;17.16;118.99
7942;HTU21D;4016;50.758;7.150;2023-10-08T17:53:36;17.03;118.99
7942;HTU21D;4016;50.758;7.150;2023-10-08T17:58:37;16.90;118.99
7942;HTU21D;4016;50.758;7.150;2023-10-08T18:03:38;16.77;118.99
7942;HTU21D;4016;50.758;7.150;2023-10-08T18:08:39;16.62;118.99
7942;HTU21D;4016;50.758;7.150;2023-10-08T18:13:39;16.45;118.99
7942;HTU21D;4016;50.758;7.150;2023-10-08T18:18:43;16.33;118.99
7942;HTU21D;4016;50.758;7.150;2023-10-08T18:23:45;16.22;118.99
7942;HTU21D;4016;50.758;7.150;2023-10-08T18:28:47;16.17;118.99
7942;HTU21D;4016;50.758;7.150;2023-10-08T18:33:49;16.08;118.99
7942;HTU21D;4016;50.758;7.150;2023-10-08T18:38:50;16.03;118.99
7942;HTU21D;4016;50.758;7.150;2023-10-08T18:43:51;16.00;118.99
7942;HTU21D;4016;50.758;7.150;2023-10-08T18:48:53;15.98;118.99
7942;HTU21D;4016;50.758;7.150;2023-10-08T18:53:53;15.92;118.99
7942;HTU21D;4016;50.758;7.150;2023-10-08T18:58:56;15.87;118.99
7942;HTU21D;4016;50.758;7.150;2023-10-08T19:03:56;15.87;118.99
7942;HTU21D;4016;50.758;7.150;2023-10-08T19:08:57;15.80;118.99
7942;HTU21D;4016;50.758;7.150;2023-10-08T19:13:57;15.71;118.99
7942;HTU21D;4016;50.758;7.150;2023-10-08T19:18:58;15.66;118.99
7942;HTU21D;4016;50.758;7.150;2023-10-08T19:23:59;15.57;118.99
7942;HTU21D;4016;50.758;7.150;2023-10-08T19:29:00;15.51;118.99
7942;HTU21D;4016;50.758;7.150;2023-10-08T19:34:00;15.44;118.99
7942;HTU21D;4016;50.758;7.150;2023-10-08T19:39:01;15.36;118.99
7942;HTU21D;4016;50.758;7.150;2023-10-08T19:44:02;15.29;118.99
7942;HTU21D;4016;50.758;7.150;2023-10-08T19:49:02;15.19;118.99
7942;HTU21D;4016;50.758;7.150;2023-10-08T19:54:05;15.10;118.99
7942;HTU21D;4016;50.758;7.150;2023-10-08T19:59:05;15.02;118.99
7942;HTU21D;4016;50.758;7.150;2023-10-08T20:04:06;15.09;118.99
7942;HTU21D;4016;50.758;7.150;2023-10-08T20:09:08;14.92;118.99
7942;HTU21D;4016;50.758;7.150;2023-10-08T20:14:09;14.82;118.99
7942;HTU21D;4016;50.758;7.150;2023-10-08T20:19:10;14.75;118.99
7942;HTU21D;4016;50.758;7.150;2023-10-08T20:24:10;14.71;118.99
7942;HTU21D;4016;50.758;7.150;2023-10-08T20:29:11;14.68;118.99
7942;HTU21D;4016;50.758;7.150;2023-10-08T20:34:13;14.59;118.99
7942;HTU21D;4016;50.758;7.150;2023-10-08T20:39:14;14.49;118.99
7942;HTU21D;4016;50.758;7.150;2023-10-08T20:44:20;14.48;118.99
7942;HTU21D;4016;50.758;7.150;2023-10-08T20:49:21;14.41;118.99
7942;HTU21D;4016;50.758;7.150;2023-10-08T20:54:21;14.35;118.99
7942;HTU21D;4016;50.758;7.150;2023-10-08T20:59:22;14.29;118.99
7942;HTU21D;4016;50.758;7.150;2023-10-08T21:04:22;14.23;118.99
7942;HTU21D;4016;50.758;7.150;2023-10-08T21:09:23;14.19;118.99
7942;HTU21D;4016;50.758;7.150;2023-10-08T21:14:24;14.10;118.99
7942;HTU21D;4016;50.758;7.150;2023-10-08T21:19:26;14.01;118.99
7942;HTU21D;4016;50.758;7.150;2023-10-08T21:24:26;13.95;118.99
7942;HTU21D;4016;50.758;7.150;2023-10-08T21:29:26;13.90;118.99
7942;HTU21D;4016;50.758;7.150;2023-10-08T21:34:27;13.95;118.99
7942;HTU21D;4016;50.758;7.150;2023-10-08T21:39:31;13.85;118.99
7942;HTU21D;4016;50.758;7.150;2023-10-08T21:44:32;13.74;118.99
7942;HTU21D;4016;50.758;7.150;2023-10-08T21:49:32;13.69;118.99
7942;HTU21D;4016;50.758;7.150;2023-10-08T21:54:33;13.62;118.99
7942;HTU21D;4016;50.758;7.150;2023-10-08T21:59:34;13.59;118.99
7942;HTU21D;4016;50.758;7.150;2023-10-08T22:04:34;13.61;118.99
7942;HTU21D;4016;50.758;7.150;2023-10-08T22:09:35;13.58;118.99
7942;HTU21D;4016;50.758;7.150;2023-10-08T22:14:35;13.55;118.99
7942;HTU21D;4016;50.758;7.150;2023-10-08T22:19:36;13.52;118.99
7942;HTU21D;4016;50.758;7.150;2023-10-08T22:24:43;13.49;118.99
7942;HTU21D;4016;50.758;7.150;2023-10-08T22:29:44;13.52;118.99
7942;HTU21D;4016;50.758;7.150;2023-10-08T22:34:48;13.47;118.99
7942;HTU21D;4016;50.758;7.150;2023-10-08T22:39:55;13.44;118.99
7942;HTU21D;4016;50.758;7.150;2023-10-08T22:44:56;13.49;118.99
7942;HTU21D;4016;50.758;7.150;2023-10-08T22:49:56;13.43;118.99
7942;HTU21D;4016;50.758;7.150;2023-10-08T22:54:57;13.37;118.99
7942;HTU21D;4016;50.758;7.150;2023-10-08T22:59:58;13.39;118.99
7942;HTU21D;4016;50.758;7.150;2023-10-08T23:04:59;13.37;118.99
7942;HTU21D;4016;50.758;7.150;2023-10-08T23:10:01;13.44;118.99
7942;HTU21D;4016;50.758;7.150;2023-10-08T23:15:02;13.38;118.99
7942;HTU21D;4016;50.758;7.150;2023-10-08T23:20:02;13.38;118.99
7942;HTU21D;4016;50.758;7.150;2023-10-08T23:25:07;13.39;118.99
7942;HTU21D;4016;50.758;7.150;2023-10-08T23:30:08;13.37;118.99
7942;HTU21D;4016;50.758;7.150;2023-10-08T23:35:11;13.31;118.99
7942;HTU21D;4016;50.758;7.150;2023-10-08T23:40:17;13.29;118.99
7942;HTU21D;4016;50.758;7.150;2023-10-08T23:45:29;13.29;118.99
7942;HTU21D;4016;50.758;7.150;2023-10-08T23:50:30;13.34;118.99
7942;HTU21D;4016;50.758;7.150;2023-10-08T23:55:30;13.31;118.99
